Pagrindinis puslapis
METAR-TAF:

METAR-TAF

Oro uostai :

Rionė, Danija

platuma: 55-04N, ilguma: 014-45E, Aukštis: 16 m

Dabartinis oras

Ataskaita buvo paskelbta 26 minutes, ne 01:20 UTC
Vėjas 26 kt iš Vakarų/Šiaurės Vakarų su gūsio iki 38 kt
Temperatūra 3°C
Drėgmė 65%
Slėgis 1000 hPa
Matomumas 10 km arba daugiau

METAR: EKRN 200120Z AUTO 29026G38KT 9999 SCT033/// BKN077/// 03/M03 Q1000

Laikas: 02:46 (01:46 UTC)

Prognozė

Ataskaita buvo paskelbta 4 valandos ir 44 minutes, ne 21:02 UTC
Prognozė galioja nuo 19 metu 21 UTC su 19 metu 23 UTC
Vėjas 22 kt iš Vakarų/Pietvakarių su gūsio iki 35 kt
Matomumas: 4000 m
Su prošvaistėmis ne aukštis 800 ft
lietus, dulksna, rūkana
Tapsmas
nuo 19 metu 21 UTC su 19 metu 23 UTC
Vėjas 28 kt iš Vakarų/Šiaurės Vakarų su gūsio iki 40 kt
Matomumas 10 km arba daugiau
Išsisklaidę debesys ne aukštis 3000 ft

TAF: EKRN 192102Z 1921/1923 24022G35KT 4000 -RADZ BR BKN008 BECMG 1921/1923 30028G40KT 9999 NSW SCT030

Orai ataskaitas ir orų prognozės (METAR, TAF).

turimą stotys yra geltonos ir raudonos taškus žemėlapyje.

Perkelti pele per norėdami pamatyti stoties vardą.

Tada spustelėkite, norėdami matyti oro stebėjimo ir prognozės.

Norėdami pakeisti žemėlapį: spustelėkite ant žalios mygtukų su juodo kryžiaus žemyn,; žalią mygtuką su brūkšneliu, jei norite nutolinti; arba žalių rodyklių gretimoms žemėlapius.


METAR-TAF: